sensor_id;sensor_type;location;lat;lon;timestamp;temperature;humidity
14093;DHT22;7123;49.468;10.992;2023-04-03T00:01:04;6.70;99.90
14093;DHT22;7123;49.468;10.992;2023-04-03T00:03:31;6.70;99.90
14093;DHT22;7123;49.468;10.992;2023-04-03T00:05:58;6.60;99.90
14093;DHT22;7123;49.468;10.992;2023-04-03T00:08:25;6.60;99.90
14093;DHT22;7123;49.468;10.992;2023-04-03T00:10:52;6.60;99.90
14093;DHT22;7123;49.468;10.992;2023-04-03T00:13:19;6.60;99.90
14093;DHT22;7123;49.468;10.992;2023-04-03T00:15:45;6.60;99.90
14093;DHT22;7123;49.468;10.992;2023-04-03T00:18:12;6.70;99.90
14093;DHT22;7123;49.468;10.992;2023-04-03T00:20:39;6.70;99.90
14093;DHT22;7123;49.468;10.992;2023-04-03T00:23:05;6.70;99.90
14093;DHT22;7123;49.468;10.992;2023-04-03T00:25:32;6.70;99.90
14093;DHT22;7123;49.468;10.992;2023-04-03T00:28:00;6.70;99.90
14093;DHT22;7123;49.468;10.992;2023-04-03T00:30:27;6.70;99.90
14093;DHT22;7123;49.468;10.992;2023-04-03T00:32:54;6.70;99.90
14093;DHT22;7123;49.468;10.992;2023-04-03T00:35:21;6.70;99.90
14093;DHT22;7123;49.468;10.992;2023-04-03T00:37:51;6.70;99.90
14093;DHT22;7123;49.468;10.992;2023-04-03T00:40:19;6.70;99.90
14093;DHT22;7123;49.468;10.992;2023-04-03T00:42:47;6.70;99.90
14093;DHT22;7123;49.468;10.992;2023-04-03T00:45:37;6.70;99.90
14093;DHT22;7123;49.468;10.992;2023-04-03T00:48:07;6.70;99.90
14093;DHT22;7123;49.468;10.992;2023-04-03T00:50:37;6.60;99.90
14093;DHT22;7123;49.468;10.992;2023-04-03T00:53:06;6.70;99.90
14093;DHT22;7123;49.468;10.992;2023-04-03T00:55:35;6.70;99.90
14093;DHT22;7123;49.468;10.992;2023-04-03T00:58:04;6.70;99.90
14093;DHT22;7123;49.468;10.992;2023-04-03T01:00:34;6.70;99.90
14093;DHT22;7123;49.468;10.992;2023-04-03T01:03:02;6.60;99.90
14093;DHT22;7123;49.468;10.992;2023-04-03T01:05:29;6.60;99.90
14093;DHT22;7123;49.468;10.992;2023-04-03T01:07:56;6.60;99.90
14093;DHT22;7123;49.468;10.992;2023-04-03T01:10:24;6.60;99.90
14093;DHT22;7123;49.468;10.992;2023-04-03T01:12:52;6.60;99.90
14093;DHT22;7123;49.468;10.992;2023-04-03T01:15:22;6.60;99.90
14093;DHT22;7123;49.468;10.992;2023-04-03T01:17:55;6.60;99.90
14093;DHT22;7123;49.468;10.992;2023-04-03T01:25:51;6.60;99.90
14093;DHT22;7123;49.468;10.992;2023-04-03T01:28:25;6.60;99.90
14093;DHT22;7123;49.468;10.992;2023-04-03T01:33:33;6.60;99.90
14093;DHT22;7123;49.468;10.992;2023-04-03T01:36:00;6.50;99.90
14093;DHT22;7123;49.468;10.992;2023-04-03T01:38:27;6.50;99.90
14093;DHT22;7123;49.468;10.992;2023-04-03T01:40:54;6.50;99.90
14093;DHT22;7123;49.468;10.992;2023-04-03T01:43:21;6.50;99.90
14093;DHT22;7123;49.468;10.992;2023-04-03T01:45:48;6.50;99.90
14093;DHT22;7123;49.468;10.992;2023-04-03T01:48:16;6.60;99.90
14093;DHT22;7123;49.468;10.992;2023-04-03T01:50:43;6.50;99.90
14093;DHT22;7123;49.468;10.992;2023-04-03T01:53:10;6.40;99.90
14093;DHT22;7123;49.468;10.992;2023-04-03T01:55:37;6.40;99.90
14093;DHT22;7123;49.468;10.992;2023-04-03T01:58:03;6.10;99.90
14093;DHT22;7123;49.468;10.992;2023-04-03T02:00:30;6.10;99.90
14093;DHT22;7123;49.468;10.992;2023-04-03T02:02:57;6.20;99.90
14093;DHT22;7123;49.468;10.992;2023-04-03T02:05:24;6.10;99.90
14093;DHT22;7123;49.468;10.992;2023-04-03T02:07:50;6.10;99.90
14093;DHT22;7123;49.468;10.992;2023-04-03T02:10:18;6.10;99.90
14093;DHT22;7123;49.468;10.992;2023-04-03T02:12:45;6.00;99.90
14093;DHT22;7123;49.468;10.992;2023-04-03T02:15:12;6.00;99.90
14093;DHT22;7123;49.468;10.992;2023-04-03T02:17:38;6.00;99.90
14093;DHT22;7123;49.468;10.992;2023-04-03T02:20:06;6.10;99.90
14093;DHT22;7123;49.468;10.992;2023-04-03T02:22:32;6.00;99.90
14093;DHT22;7123;49.468;10.992;2023-04-03T02:24:59;6.00;99.90
14093;DHT22;7123;49.468;10.992;2023-04-03T02:27:26;6.10;99.90
14093;DHT22;7123;49.468;10.992;2023-04-03T02:29:53;6.10;99.90
14093;DHT22;7123;49.468;10.992;2023-04-03T02:32:19;6.00;99.90
14093;DHT22;7123;49.468;10.992;2023-04-03T02:34:46;6.00;99.90
14093;DHT22;7123;49.468;10.992;2023-04-03T02:37:13;6.10;99.90
14093;DHT22;7123;49.468;10.992;2023-04-03T02:39:39;6.00;99.90
14093;DHT22;7123;49.468;10.992;2023-04-03T02:42:06;6.00;99.90
14093;DHT22;7123;49.468;10.992;2023-04-03T02:44:33;6.10;99.90
14093;DHT22;7123;49.468;10.992;2023-04-03T02:47:00;6.10;99.90
14093;DHT22;7123;49.468;10.992;2023-04-03T02:49:27;6.10;99.90
14093;DHT22;7123;49.468;10.992;2023-04-03T02:51:54;6.10;99.90
14093;DHT22;7123;49.468;10.992;2023-04-03T02:54:20;6.10;99.90
14093;DHT22;7123;49.468;10.992;2023-04-03T02:56:49;6.20;99.90
14093;DHT22;7123;49.468;10.992;2023-04-03T02:59:16;6.20;99.90
14093;DHT22;7123;49.468;10.992;2023-04-03T03:01:43;6.10;99.90
14093;DHT22;7123;49.468;10.992;2023-04-03T03:04:10;6.10;99.90
14093;DHT22;7123;49.468;10.992;2023-04-03T03:06:37;6.10;99.90
14093;DHT22;7123;49.468;10.992;2023-04-03T03:09:04;6.20;99.90
14093;DHT22;7123;49.468;10.992;2023-04-03T03:11:32;6.10;99.90
14093;DHT22;7123;49.468;10.992;2023-04-03T03:13:58;6.10;99.90
14093;DHT22;7123;49.468;10.992;2023-04-03T03:16:25;6.00;99.90
14093;DHT22;7123;49.468;10.992;2023-04-03T03:18:52;5.80;99.90
14093;DHT22;7123;49.468;10.992;2023-04-03T03:21:19;5.80;99.90
14093;DHT22;7123;49.468;10.992;2023-04-03T03:23:46;5.70;99.90
14093;DHT22;7123;49.468;10.992;2023-04-03T03:26:13;5.70;99.90
14093;DHT22;7123;49.468;10.992;2023-04-03T03:28:39;5.70;99.90
14093;DHT22;7123;49.468;10.992;2023-04-03T03:31:08;5.70;99.90
14093;DHT22;7123;49.468;10.992;2023-04-03T03:33:35;5.70;99.90
14093;DHT22;7123;49.468;10.992;2023-04-03T03:36:02;5.70;99.90
14093;DHT22;7123;49.468;10.992;2023-04-03T03:38:29;5.70;99.90
14093;DHT22;7123;49.468;10.992;2023-04-03T03:40:55;5.80;99.90
14093;DHT22;7123;49.468;10.992;2023-04-03T03:43:22;5.80;99.90
14093;DHT22;7123;49.468;10.992;2023-04-03T03:45:52;5.80;99.90
14093;DHT22;7123;49.468;10.992;2023-04-03T03:48:20;5.80;99.90
14093;DHT22;7123;49.468;10.992;2023-04-03T03:50:47;5.80;99.90
14093;DHT22;7123;49.468;10.992;2023-04-03T03:53:14;5.80;99.90
14093;DHT22;7123;49.468;10.992;2023-04-03T03:55:41;5.80;99.90
14093;DHT22;7123;49.468;10.992;2023-04-03T03:58:08;5.80;99.90
14093;DHT22;7123;49.468;10.992;2023-04-03T04:00:35;5.70;99.90
14093;DHT22;7123;49.468;10.992;2023-04-03T04:03:01;5.70;99.90
14093;DHT22;7123;49.468;10.992;2023-04-03T04:05:28;5.70;99.90
14093;DHT22;7123;49.468;10.992;2023-04-03T04:07:55;5.70;99.90
14093;DHT22;7123;49.468;10.992;2023-04-03T04:10:21;5.80;99.90
14093;DHT22;7123;49.468;10.992;2023-04-03T04:12:48;5.80;99.90
14093;DHT22;7123;49.468;10.992;2023-04-03T04:15:17;5.80;99.90
14093;DHT22;7123;49.468;10.992;2023-04-03T04:17:44;5.90;99.90
14093;DHT22;7123;49.468;10.992;2023-04-03T04:20:12;5.70;99.90
14093;DHT22;7123;49.468;10.992;2023-04-03T04:22:38;5.70;99.90
14093;DHT22;7123;49.468;10.992;2023-04-03T04:25:05;5.70;99.90
14093;DHT22;7123;49.468;10.992;2023-04-03T04:27:32;5.60;99.90
14093;DHT22;7123;49.468;10.992;2023-04-03T04:29:59;5.60;99.90
14093;DHT22;7123;49.468;10.992;2023-04-03T04:32:25;5.60;99.90
14093;DHT22;7123;49.468;10.992;2023-04-03T04:34:52;5.50;99.90
14093;DHT22;7123;49.468;10.992;2023-04-03T04:37:19;5.50;99.90
14093;DHT22;7123;49.468;10.992;2023-04-03T04:39:45;5.50;99.90
14093;DHT22;7123;49.468;10.992;2023-04-03T04:42:12;5.50;99.90
14093;DHT22;7123;49.468;10.992;2023-04-03T04:44:42;5.50;99.90
14093;DHT22;7123;49.468;10.992;2023-04-03T04:47:08;5.60;99.90
14093;DHT22;7123;49.468;10.992;2023-04-03T04:49:35;5.50;99.90
14093;DHT22;7123;49.468;10.992;2023-04-03T04:52:02;5.50;99.90
14093;DHT22;7123;49.468;10.992;2023-04-03T04:54:29;5.50;99.90
14093;DHT22;7123;49.468;10.992;2023-04-03T04:56:55;5.50;99.90
14093;DHT22;7123;49.468;10.992;2023-04-03T04:59:22;5.50;99.90
14093;DHT22;7123;49.468;10.992;2023-04-03T05:01:49;5.60;99.90
14093;DHT22;7123;49.468;10.992;2023-04-03T05:04:17;5.60;99.90
14093;DHT22;7123;49.468;10.992;2023-04-03T05:06:44;5.70;99.90
14093;DHT22;7123;49.468;10.992;2023-04-03T05:09:11;5.60;99.90
14093;DHT22;7123;49.468;10.992;2023-04-03T05:11:37;5.60;99.90
14093;DHT22;7123;49.468;10.992;2023-04-03T05:14:04;5.60;99.90
14093;DHT22;7123;49.468;10.992;2023-04-03T05:16:33;5.60;99.90
14093;DHT22;7123;49.468;10.992;2023-04-03T05:18:59;5.60;99.90
14093;DHT22;7123;49.468;10.992;2023-04-03T05:21:26;5.60;99.90
14093;DHT22;7123;49.468;10.992;2023-04-03T05:23:55;5.60;99.90
14093;DHT22;7123;49.468;10.992;2023-04-03T05:26:22;5.60;99.90
14093;DHT22;7123;49.468;10.992;2023-04-03T05:28:49;5.60;99.90
14093;DHT22;7123;49.468;10.992;2023-04-03T05:31:15;5.60;99.90
14093;DHT22;7123;49.468;10.992;2023-04-03T05:33:42;5.60;99.90
14093;DHT22;7123;49.468;10.992;2023-04-03T05:36:09;5.60;99.90
14093;DHT22;7123;49.468;10.992;2023-04-03T05:38:36;5.60;99.90
14093;DHT22;7123;49.468;10.992;2023-04-03T05:41:02;5.60;99.90
14093;DHT22;7123;49.468;10.992;2023-04-03T05:43:29;5.60;99.90
14093;DHT22;7123;49.468;10.992;2023-04-03T05:45:56;5.60;99.90
14093;DHT22;7123;49.468;10.992;2023-04-03T05:48:23;5.60;99.90
14093;DHT22;7123;49.468;10.992;2023-04-03T05:50:49;5.60;99.90
14093;DHT22;7123;49.468;10.992;2023-04-03T05:53:21;5.60;99.90
14093;DHT22;7123;49.468;10.992;2023-04-03T05:55:48;5.60;99.90
14093;DHT22;7123;49.468;10.992;2023-04-03T05:58:15;5.60;99.90
14093;DHT22;7123;49.468;10.992;2023-04-03T06:00:41;5.60;99.90
14093;DHT22;7123;49.468;10.992;2023-04-03T06:03:08;5.60;99.90
14093;DHT22;7123;49.468;10.992;2023-04-03T06:05:35;5.60;99.90
14093;DHT22;7123;49.468;10.992;2023-04-03T06:08:03;5.70;99.90
14093;DHT22;7123;49.468;10.992;2023-04-03T06:10:30;5.70;99.90
14093;DHT22;7123;49.468;10.992;2023-04-03T06:12:56;5.70;99.90
14093;DHT22;7123;49.468;10.992;2023-04-03T06:15:23;5.70;99.90
14093;DHT22;7123;49.468;10.992;2023-04-03T06:17:50;5.70;99.90
14093;DHT22;7123;49.468;10.992;2023-04-03T06:20:17;5.60;99.90
14093;DHT22;7123;49.468;10.992;2023-04-03T06:22:44;5.70;99.90
14093;DHT22;7123;49.468;10.992;2023-04-03T06:25:11;5.70;99.90
14093;DHT22;7123;49.468;10.992;2023-04-03T06:27:38;5.70;99.90
14093;DHT22;7123;49.468;10.992;2023-04-03T06:30:06;5.70;99.90
14093;DHT22;7123;49.468;10.992;2023-04-03T06:32:33;5.70;99.90
14093;DHT22;7123;49.468;10.992;2023-04-03T06:34:59;5.60;99.90
14093;DHT22;7123;49.468;10.992;2023-04-03T06:37:26;5.60;99.90
14093;DHT22;7123;49.468;10.992;2023-04-03T06:39:55;5.60;99.90
14093;DHT22;7123;49.468;10.992;2023-04-03T06:42:22;5.60;99.90
14093;DHT22;7123;49.468;10.992;2023-04-03T06:44:49;5.60;99.90
14093;DHT22;7123;49.468;10.992;2023-04-03T06:47:16;5.50;99.90
14093;DHT22;7123;49.468;10.992;2023-04-03T06:49:43;5.50;99.90
14093;DHT22;7123;49.468;10.992;2023-04-03T06:52:11;5.50;99.90
14093;DHT22;7123;49.468;10.992;2023-04-03T06:54:39;5.50;99.90
14093;DHT22;7123;49.468;10.992;2023-04-03T06:57:06;5.50;99.90
14093;DHT22;7123;49.468;10.992;2023-04-03T06:59:34;5.50;99.90
14093;DHT22;7123;49.468;10.992;2023-04-03T07:02:01;5.50;99.90
14093;DHT22;7123;49.468;10.992;2023-04-03T07:04:28;5.50;99.90
14093;DHT22;7123;49.468;10.992;2023-04-03T07:06:55;5.50;99.90
14093;DHT22;7123;49.468;10.992;2023-04-03T07:09:22;5.50;99.90
14093;DHT22;7123;49.468;10.992;2023-04-03T07:11:48;5.50;99.90
14093;DHT22;7123;49.468;10.992;2023-04-03T07:14:15;5.40;99.90
14093;DHT22;7123;49.468;10.992;2023-04-03T07:16:42;5.40;99.90
14093;DHT22;7123;49.468;10.992;2023-04-03T07:19:09;5.40;99.90
14093;DHT22;7123;49.468;10.992;2023-04-03T07:21:36;5.40;99.90
14093;DHT22;7123;49.468;10.992;2023-04-03T07:24:03;5.40;99.90
14093;DHT22;7123;49.468;10.992;2023-04-03T07:26:29;5.40;99.90
14093;DHT22;7123;49.468;10.992;2023-04-03T07:28:57;5.40;99.90
14093;DHT22;7123;49.468;10.992;2023-04-03T07:31:23;5.40;99.90
14093;DHT22;7123;49.468;10.992;2023-04-03T07:33:51;5.40;99.90
14093;DHT22;7123;49.468;10.992;2023-04-03T07:36:19;5.40;99.90
14093;DHT22;7123;49.468;10.992;2023-04-03T07:38:46;5.30;99.90
14093;DHT22;7123;49.468;10.992;2023-04-03T07:41:18;5.30;99.90
14093;DHT22;7123;49.468;10.992;2023-04-03T07:43:46;5.30;99.90
14093;DHT22;7123;49.468;10.992;2023-04-03T07:46:14;5.30;99.90
14093;DHT22;7123;49.468;10.992;2023-04-03T07:48:41;5.30;99.90
14093;DHT22;7123;49.468;10.992;2023-04-03T07:51:09;5.30;99.90
14093;DHT22;7123;49.468;10.992;2023-04-03T07:53:36;5.30;99.90
14093;DHT22;7123;49.468;10.992;2023-04-03T07:56:02;5.30;99.90
14093;DHT22;7123;49.468;10.992;2023-04-03T07:58:29;5.30;99.90
14093;DHT22;7123;49.468;10.992;2023-04-03T08:00:56;5.40;99.90
14093;DHT22;7123;49.468;10.992;2023-04-03T08:03:23;5.40;99.90
14093;DHT22;7123;49.468;10.992;2023-04-03T08:05:51;5.60;99.90
14093;DHT22;7123;49.468;10.992;2023-04-03T08:08:21;5.40;99.90
14093;DHT22;7123;49.468;10.992;2023-04-03T08:10:53;5.40;99.90
14093;DHT22;7123;49.468;10.992;2023-04-03T08:13:21;5.50;99.90
14093;DHT22;7123;49.468;10.992;2023-04-03T08:15:48;5.50;99.90
14093;DHT22;7123;49.468;10.992;2023-04-03T08:18:15;5.50;99.90
14093;DHT22;7123;49.468;10.992;2023-04-03T08:20:42;5.50;99.90
14093;DHT22;7123;49.468;10.992;2023-04-03T08:23:10;5.60;99.90
14093;DHT22;7123;49.468;10.992;2023-04-03T08:25:40;5.60;99.90
14093;DHT22;7123;49.468;10.992;2023-04-03T08:28:11;5.70;99.90
14093;DHT22;7123;49.468;10.992;2023-04-03T08:30:40;5.70;99.90
14093;DHT22;7123;49.468;10.992;2023-04-03T08:33:07;5.70;99.90
14093;DHT22;7123;49.468;10.992;2023-04-03T08:35:39;5.70;99.90
14093;DHT22;7123;49.468;10.992;2023-04-03T08:38:08;5.70;99.90
14093;DHT22;7123;49.468;10.992;2023-04-03T08:40:34;5.80;99.90
14093;DHT22;7123;49.468;10.992;2023-04-03T08:46:03;5.80;99.90
14093;DHT22;7123;49.468;10.992;2023-04-03T08:48:42;5.80;99.90
14093;DHT22;7123;49.468;10.992;2023-04-03T08:51:15;5.80;99.90
14093;DHT22;7123;49.468;10.992;2023-04-03T08:53:51;5.80;99.90
14093;DHT22;7123;49.468;10.992;2023-04-03T08:56:27;5.80;99.90
14093;DHT22;7123;49.468;10.992;2023-04-03T08:59:06;5.80;99.90
14093;DHT22;7123;49.468;10.992;2023-04-03T09:01:39;5.80;99.90
14093;DHT22;7123;49.468;10.992;2023-04-03T09:04:15;5.90;99.90
14093;DHT22;7123;49.468;10.992;2023-04-03T09:06:56;5.80;99.90
14093;DHT22;7123;49.468;10.992;2023-04-03T09:09:40;5.80;99.90
14093;DHT22;7123;49.468;10.992;2023-04-03T09:12:27;5.70;99.90
14093;DHT22;7123;49.468;10.992;2023-04-03T09:17:41;5.60;99.90
14093;DHT22;7123;49.468;10.992;2023-04-03T09:25:52;5.60;99.90
14093;DHT22;7123;49.468;10.992;2023-04-03T09:28:19;5.60;99.90
14093;DHT22;7123;49.468;10.992;2023-04-03T09:30:46;5.60;99.90
14093;DHT22;7123;49.468;10.992;2023-04-03T09:33:14;5.70;99.90
14093;DHT22;7123;49.468;10.992;2023-04-03T09:35:45;5.70;99.90
14093;DHT22;7123;49.468;10.992;2023-04-03T09:38:21;5.70;99.90
14093;DHT22;7123;49.468;10.992;2023-04-03T09:41:11;5.70;99.90
14093;DHT22;7123;49.468;10.992;2023-04-03T09:43:52;5.80;99.90
14093;DHT22;7123;49.468;10.992;2023-04-03T09:46:33;5.80;99.90
14093;DHT22;7123;49.468;10.992;2023-04-03T09:49:04;5.80;99.90
14093;DHT22;7123;49.468;10.992;2023-04-03T09:51:36;5.90;99.90
14093;DHT22;7123;49.468;10.992;2023-04-03T09:54:29;5.90;99.90
14093;DHT22;7123;49.468;10.992;2023-04-03T09:57:08;6.00;99.90
14093;DHT22;7123;49.468;10.992;2023-04-03T09:59:37;6.00;99.90
14093;DHT22;7123;49.468;10.992;2023-04-03T10:02:30;6.10;99.90
14093;DHT22;7123;49.468;10.992;2023-04-03T10:04:59;6.00;99.90
14093;DHT22;7123;49.468;10.992;2023-04-03T10:07:37;6.00;99.90
14093;DHT22;7123;49.468;10.992;2023-04-03T10:10:22;5.90;99.90
14093;DHT22;7123;49.468;10.992;2023-04-03T10:13:25;5.90;99.90
14093;DHT22;7123;49.468;10.992;2023-04-03T10:15:59;6.00;99.90
14093;DHT22;7123;49.468;10.992;2023-04-03T10:18:32;6.10;99.90
14093;DHT22;7123;49.468;10.992;2023-04-03T10:21:10;6.20;99.90
14093;DHT22;7123;49.468;10.992;2023-04-03T10:26:32;6.20;99.90
14093;DHT22;7123;49.468;10.992;2023-04-03T10:29:40;6.20;99.90
14093;DHT22;7123;49.468;10.992;2023-04-03T10:32:22;6.20;99.90
14093;DHT22;7123;49.468;10.992;2023-04-03T10:34:57;6.20;99.90
14093;DHT22;7123;49.468;10.992;2023-04-03T10:37:57;6.20;99.90
14093;DHT22;7123;49.468;10.992;2023-04-03T10:51:34;6.40;99.90
14093;DHT22;7123;49.468;10.992;2023-04-03T10:54:25;6.50;99.90
14093;DHT22;7123;49.468;10.992;2023-04-03T10:57:03;6.30;99.90
14093;DHT22;7123;49.468;10.992;2023-04-03T11:02:55;6.20;99.90
14093;DHT22;7123;49.468;10.992;2023-04-03T11:08:04;6.20;99.90
14093;DHT22;7123;49.468;10.992;2023-04-03T11:10:44;6.30;99.90
14093;DHT22;7123;49.468;10.992;2023-04-03T11:13:18;6.20;99.90
14093;DHT22;7123;49.468;10.992;2023-04-03T11:15:48;6.20;99.90
14093;DHT22;7123;49.468;10.992;2023-04-03T11:18:39;6.20;99.90
14093;DHT22;7123;49.468;10.992;2023-04-03T11:21:20;6.30;99.90
14093;DHT22;7123;49.468;10.992;2023-04-03T11:23:48;6.40;99.90
14093;DHT22;7123;49.468;10.992;2023-04-03T11:26:18;6.50;99.90
14093;DHT22;7123;49.468;10.992;2023-04-03T11:29:26;6.60;99.90
14093;DHT22;7123;49.468;10.992;2023-04-03T11:34:41;6.50;99.90
14093;DHT22;7123;49.468;10.992;2023-04-03T11:37:16;6.40;99.90
14093;DHT22;7123;49.468;10.992;2023-04-03T11:40:08;6.40;99.90
14093;DHT22;7123;49.468;10.992;2023-04-03T11:42:51;6.40;99.90
14093;DHT22;7123;49.468;10.992;2023-04-03T11:47:51;6.40;99.90
14093;DHT22;7123;49.468;10.992;2023-04-03T12:27:01;6.60;99.90
14093;DHT22;7123;49.468;10.992;2023-04-03T12:29:38;6.50;99.90
14093;DHT22;7123;49.468;10.992;2023-04-03T12:35:31;6.60;99.90
14093;DHT22;7123;49.468;10.992;2023-04-03T12:47:00;6.90;99.90
14093;DHT22;7123;49.468;10.992;2023-04-03T12:49:33;6.90;99.90
14093;DHT22;7123;49.468;10.992;2023-04-03T12:52:06;6.90;99.90
14093;DHT22;7123;49.468;10.992;2023-04-03T12:54:40;6.90;99.90
14093;DHT22;7123;49.468;10.992;2023-04-03T12:57:17;6.90;99.90
14093;DHT22;7123;49.468;10.992;2023-04-03T12:59:44;6.90;99.90
14093;DHT22;7123;49.468;10.992;2023-04-03T13:02:24;7.00;99.90
14093;DHT22;7123;49.468;10.992;2023-04-03T13:04:55;7.20;99.90
14093;DHT22;7123;49.468;10.992;2023-04-03T13:07:31;7.00;99.90
14093;DHT22;7123;49.468;10.992;2023-04-03T13:12:33;7.00;99.90
14093;DHT22;7123;49.468;10.992;2023-04-03T13:15:26;7.10;99.90
14093;DHT22;7123;49.468;10.992;2023-04-03T13:17:53;7.20;99.90
14093;DHT22;7123;49.468;10.992;2023-04-03T13:20:36;7.20;99.90
14093;DHT22;7123;49.468;10.992;2023-04-03T13:23:10;7.40;99.90
14093;DHT22;7123;49.468;10.992;2023-04-03T13:25:43;7.20;99.90
14093;DHT22;7123;49.468;10.992;2023-04-03T13:28:13;7.20;99.90
14093;DHT22;7123;49.468;10.992;2023-04-03T13:33:29;7.10;99.90
14093;DHT22;7123;49.468;10.992;2023-04-03T13:36:06;7.10;99.90
14093;DHT22;7123;49.468;10.992;2023-04-03T13:38:34;7.10;99.90
14093;DHT22;7123;49.468;10.992;2023-04-03T13:41:25;7.30;99.90
14093;DHT22;7123;49.468;10.992;2023-04-03T13:43:52;7.30;99.90
14093;DHT22;7123;49.468;10.992;2023-04-03T13:46:28;7.50;99.90
14093;DHT22;7123;49.468;10.992;2023-04-03T13:48:56;7.40;99.90
14093;DHT22;7123;49.468;10.992;2023-04-03T13:51:28;7.30;99.90
14093;DHT22;7123;49.468;10.992;2023-04-03T13:53:59;7.40;99.90
14093;DHT22;7123;49.468;10.992;2023-04-03T13:56:36;7.50;99.90
14093;DHT22;7123;49.468;10.992;2023-04-03T14:04:26;7.60;99.90
14093;DHT22;7123;49.468;10.992;2023-04-03T14:06:54;7.60;99.90
14093;DHT22;7123;49.468;10.992;2023-04-03T14:09:26;7.70;99.90
14093;DHT22;7123;49.468;10.992;2023-04-03T14:11:58;7.70;99.90
14093;DHT22;7123;49.468;10.992;2023-04-03T14:14:29;7.70;99.90
14093;DHT22;7123;49.468;10.992;2023-04-03T14:16:59;7.60;99.90
14093;DHT22;7123;49.468;10.992;2023-04-03T14:19:34;7.50;99.90
14093;DHT22;7123;49.468;10.992;2023-04-03T14:22:16;7.60;99.90
14093;DHT22;7123;49.468;10.992;2023-04-03T14:24:43;7.80;99.90
14093;DHT22;7123;49.468;10.992;2023-04-03T14:27:20;8.00;99.90
14093;DHT22;7123;49.468;10.992;2023-04-03T14:29:52;8.20;99.90
14093;DHT22;7123;49.468;10.992;2023-04-03T14:32:21;8.30;99.90
14093;DHT22;7123;49.468;10.992;2023-04-03T14:34:49;8.40;99.90
14093;DHT22;7123;49.468;10.992;2023-04-03T14:37:22;8.20;99.90
14093;DHT22;7123;49.468;10.992;2023-04-03T14:39:51;8.10;99.90
14093;DHT22;7123;49.468;10.992;2023-04-03T14:42:34;8.10;99.90
14093;DHT22;7123;49.468;10.992;2023-04-03T14:45:05;8.10;99.90
14093;DHT22;7123;49.468;10.992;2023-04-03T14:47:33;8.10;99.90
14093;DHT22;7123;49.468;10.992;2023-04-03T14:50:02;8.20;99.90
14093;DHT22;7123;49.468;10.992;2023-04-03T14:52:34;8.20;99.90
14093;DHT22;7123;49.468;10.992;2023-04-03T14:55:04;8.20;99.90
14093;DHT22;7123;49.468;10.992;2023-04-03T14:57:32;8.10;99.90
14093;DHT22;7123;49.468;10.992;2023-04-03T15:00:00;8.20;99.90
14093;DHT22;7123;49.468;10.992;2023-04-03T15:02:30;7.90;99.90
14093;DHT22;7123;49.468;10.992;2023-04-03T15:04:59;7.90;99.90
14093;DHT22;7123;49.468;10.992;2023-04-03T15:07:29;8.00;99.90
14093;DHT22;7123;49.468;10.992;2023-04-03T15:09:56;7.90;99.90
14093;DHT22;7123;49.468;10.992;2023-04-03T15:12:24;7.90;99.90
14093;DHT22;7123;49.468;10.992;2023-04-03T15:14:51;7.80;99.90
14093;DHT22;7123;49.468;10.992;2023-04-03T15:17:28;7.90;99.90
14093;DHT22;7123;49.468;10.992;2023-04-03T15:19:55;7.90;99.90
14093;DHT22;7123;49.468;10.992;2023-04-03T15:22:24;7.90;99.90
14093;DHT22;7123;49.468;10.992;2023-04-03T15:24:51;7.90;99.90
14093;DHT22;7123;49.468;10.992;2023-04-03T15:27:18;7.90;99.90
14093;DHT22;7123;49.468;10.992;2023-04-03T15:29:45;7.90;99.90
14093;DHT22;7123;49.468;10.992;2023-04-03T15:32:12;7.80;99.90
14093;DHT22;7123;49.468;10.992;2023-04-03T15:34:39;7.90;99.90
14093;DHT22;7123;49.468;10.992;2023-04-03T15:37:06;8.00;99.90
14093;DHT22;7123;49.468;10.992;2023-04-03T15:39:33;8.20;99.90
14093;DHT22;7123;49.468;10.992;2023-04-03T15:41:59;8.50;99.90
14093;DHT22;7123;49.468;10.992;2023-04-03T15:44:35;8.30;99.90
14093;DHT22;7123;49.468;10.992;2023-04-03T15:47:02;8.30;99.90
14093;DHT22;7123;49.468;10.992;2023-04-03T15:49:30;8.10;99.90
14093;DHT22;7123;49.468;10.992;2023-04-03T15:51:57;7.90;99.90
14093;DHT22;7123;49.468;10.992;2023-04-03T15:54:24;7.90;99.90
14093;DHT22;7123;49.468;10.992;2023-04-03T15:56:53;8.00;99.90
14093;DHT22;7123;49.468;10.992;2023-04-03T15:59:20;8.20;99.90
14093;DHT22;7123;49.468;10.992;2023-04-03T16:01:47;8.40;99.90
14093;DHT22;7123;49.468;10.992;2023-04-03T16:04:15;8.70;99.90
14093;DHT22;7123;49.468;10.992;2023-04-03T16:06:44;8.80;99.90
14093;DHT22;7123;49.468;10.992;2023-04-03T16:09:10;8.50;99.90
14093;DHT22;7123;49.468;10.992;2023-04-03T16:11:37;8.50;99.90
14093;DHT22;7123;49.468;10.992;2023-04-03T16:14:07;8.60;99.90
14093;DHT22;7123;49.468;10.992;2023-04-03T16:16:33;8.70;99.90
14093;DHT22;7123;49.468;10.992;2023-04-03T16:19:01;8.70;99.90
14093;DHT22;7123;49.468;10.992;2023-04-03T16:21:28;8.80;99.90
14093;DHT22;7123;49.468;10.992;2023-04-03T16:23:57;8.90;99.90
14093;DHT22;7123;49.468;10.992;2023-04-03T16:26:24;9.10;99.90
14093;DHT22;7123;49.468;10.992;2023-04-03T16:28:52;9.10;99.90
14093;DHT22;7123;49.468;10.992;2023-04-03T16:31:20;9.10;99.90
14093;DHT22;7123;49.468;10.992;2023-04-03T16:33:48;9.10;99.90
14093;DHT22;7123;49.468;10.992;2023-04-03T16:36:14;9.00;99.90
14093;DHT22;7123;49.468;10.992;2023-04-03T16:38:41;8.90;99.90
14093;DHT22;7123;49.468;10.992;2023-04-03T16:41:08;9.00;99.90
14093;DHT22;7123;49.468;10.992;2023-04-03T16:43:34;9.00;99.90
14093;DHT22;7123;49.468;10.992;2023-04-03T16:46:02;9.00;99.90
14093;DHT22;7123;49.468;10.992;2023-04-03T16:48:30;9.20;99.90
14093;DHT22;7123;49.468;10.992;2023-04-03T16:50:57;9.20;99.90
14093;DHT22;7123;49.468;10.992;2023-04-03T16:53:25;9.30;99.90
14093;DHT22;7123;49.468;10.992;2023-04-03T16:55:52;9.50;99.90
14093;DHT22;7123;49.468;10.992;2023-04-03T16:58:19;9.30;99.90
14093;DHT22;7123;49.468;10.992;2023-04-03T17:00:49;9.30;99.90
14093;DHT22;7123;49.468;10.992;2023-04-03T17:03:16;9.50;99.90
14093;DHT22;7123;49.468;10.992;2023-04-03T17:05:47;9.50;99.90
14093;DHT22;7123;49.468;10.992;2023-04-03T17:08:13;9.60;99.90
14093;DHT22;7123;49.468;10.992;2023-04-03T17:10:40;9.70;99.90
14093;DHT22;7123;49.468;10.992;2023-04-03T17:13:07;9.80;99.90
14093;DHT22;7123;49.468;10.992;2023-04-03T17:15:34;9.70;99.90
14093;DHT22;7123;49.468;10.992;2023-04-03T17:18:02;9.70;99.90
14093;DHT22;7123;49.468;10.992;2023-04-03T17:20:29;9.40;99.90
14093;DHT22;7123;49.468;10.992;2023-04-03T17:22:59;9.30;99.90
14093;DHT22;7123;49.468;10.992;2023-04-03T17:25:25;9.20;99.90
14093;DHT22;7123;49.468;10.992;2023-04-03T17:27:52;9.10;99.90
14093;DHT22;7123;49.468;10.992;2023-04-03T17:30:19;9.00;99.90
14093;DHT22;7123;49.468;10.992;2023-04-03T17:32:46;8.90;99.90
14093;DHT22;7123;49.468;10.992;2023-04-03T17:35:12;8.90;99.90
14093;DHT22;7123;49.468;10.992;2023-04-03T17:37:39;8.70;99.90
14093;DHT22;7123;49.468;10.992;2023-04-03T17:40:07;8.50;99.90
14093;DHT22;7123;49.468;10.992;2023-04-03T17:42:34;8.30;99.90
14093;DHT22;7123;49.468;10.992;2023-04-03T17:45:01;8.00;99.90